createdAt,value
2019-02-14T00:01:39.300Z,4.35
2019-02-14T00:04:07.566Z,4.34
2019-02-14T00:06:35.827Z,4.34
2019-02-14T00:09:04.853Z,4.34
2019-02-14T00:11:33.110Z,4.33
2019-02-14T00:14:01.383Z,4.33
2019-02-14T00:16:29.664Z,4.36
2019-02-14T00:18:57.913Z,4.36
2019-02-14T00:21:26.203Z,4.37
2019-02-14T00:23:54.704Z,4.36
2019-02-14T00:26:23.002Z,4.37
2019-02-14T00:28:51.260Z,4.38
2019-02-14T00:31:19.511Z,4.42
2019-02-14T00:33:47.786Z,4.38
2019-02-14T00:36:16.082Z,4.39
2019-02-14T00:38:44.334Z,4.40
2019-02-14T00:41:12.604Z,4.43
2019-02-14T00:43:40.886Z,4.43
2019-02-14T00:46:09.156Z,4.44
2019-02-14T00:48:37.408Z,4.41
2019-02-14T00:51:05.692Z,4.45
2019-02-14T00:53:33.940Z,4.46
2019-02-14T00:56:02.230Z,4.46
2019-02-14T00:58:30.483Z,4.46
2019-02-14T01:00:58.768Z,4.46
2019-02-14T01:03:27.026Z,4.40
2019-02-14T01:05:55.315Z,4.40
2019-02-14T01:08:23.574Z,4.40
2019-02-14T01:10:51.861Z,4.42
2019-02-14T01:13:20.493Z,4.44
2019-02-14T01:15:48.813Z,4.45
2019-02-14T01:18:17.110Z,4.43
2019-02-14T01:20:45.367Z,4.44
2019-02-14T01:23:13.637Z,4.46
2019-02-14T01:25:41.889Z,4.47
2019-02-14T01:28:10.174Z,4.46
2019-02-14T01:30:38.456Z,4.46
2019-02-14T01:33:06.708Z,4.47
2019-02-14T01:35:41.869Z,4.48
2019-02-14T01:38:04.977Z,4.46
2019-02-14T01:40:33.269Z,4.47
2019-02-14T01:43:01.578Z,4.44
2019-02-14T01:45:29.895Z,4.46
2019-02-14T01:47:58.149Z,4.46
2019-02-14T01:50:26.427Z,4.50
2019-02-14T01:52:54.684Z,4.51
2019-02-14T01:55:22.982Z,4.52
2019-02-14T01:57:51.265Z,4.52
2019-02-14T02:00:19.692Z,4.53
2019-02-14T02:02:47.986Z,4.53
2019-02-14T02:05:16.242Z,4.53
2019-02-14T02:07:44.571Z,4.54
2019-02-14T02:10:13.177Z,4.52
2019-02-14T02:12:41.444Z,4.50
2019-02-14T02:15:12.251Z,4.49
2019-02-14T02:17:40.507Z,4.49
2019-02-14T02:20:10.031Z,4.46
2019-02-14T02:22:38.288Z,4.50
2019-02-14T02:25:09.409Z,4.52
2019-02-14T02:27:37.686Z,4.49
2019-02-14T02:30:12.060Z,4.48
2019-02-14T02:32:40.329Z,4.46
2019-02-14T02:35:09.052Z,4.45
2019-02-14T02:37:37.327Z,4.45
2019-02-14T02:40:08.097Z,4.42
2019-02-14T02:42:36.370Z,4.43
2019-02-14T02:45:07.765Z,4.43
2019-02-14T02:47:36.059Z,4.45
2019-02-14T02:50:05.432Z,4.41
2019-02-14T02:52:33.691Z,4.41
2019-02-14T02:55:01.980Z,4.43
2019-02-14T02:57:30.266Z,4.46
2019-02-14T02:59:58.530Z,4.44
2019-02-14T03:02:26.787Z,4.45
2019-02-14T03:04:55.138Z,4.46
2019-02-14T03:07:23.474Z,4.47
2019-02-14T03:09:51.746Z,4.45
2019-02-14T03:12:20.044Z,4.42
2019-02-14T03:14:48.330Z,4.39
2019-02-14T03:17:16.601Z,4.41
2019-02-14T03:19:44.858Z,4.40
2019-02-14T03:22:13.108Z,4.41
2019-02-14T03:24:41.391Z,4.41
2019-02-14T03:27:09.648Z,4.40
2019-02-14T03:29:37.938Z,4.39
2019-02-14T03:32:06.188Z,4.44
2019-02-14T03:34:34.468Z,4.45
2019-02-14T03:37:02.721Z,4.44
2019-02-14T03:39:30.983Z,4.43
2019-02-14T03:41:59.267Z,4.48
2019-02-14T03:44:27.521Z,4.47
2019-02-14T03:46:55.773Z,4.46
2019-02-14T03:49:24.056Z,4.43
2019-02-14T03:51:52.321Z,4.43
2019-02-14T03:54:20.622Z,4.42
2019-02-14T03:56:48.903Z,4.41
2019-02-14T03:59:17.217Z,4.39
2019-02-14T04:01:45.476Z,4.39
2019-02-14T04:04:13.721Z,4.44
2019-02-14T04:06:41.993Z,4.46
2019-02-14T04:09:10.310Z,4.43
2019-02-14T04:11:38.564Z,4.44
2019-02-14T04:14:06.810Z,4.44
2019-02-14T04:16:35.100Z,4.42
2019-02-14T04:19:03.369Z,4.42
2019-02-14T04:21:31.660Z,4.39
2019-02-14T04:24:00.017Z,4.39
2019-02-14T04:26:28.276Z,4.40
2019-02-14T04:28:56.541Z,4.40
2019-02-14T04:31:24.828Z,4.44
2019-02-14T04:33:53.092Z,4.45
2019-02-14T04:36:21.383Z,4.44
2019-02-14T04:38:49.643Z,4.45
2019-02-14T04:41:17.897Z,4.42
2019-02-14T04:43:46.218Z,4.39
2019-02-14T04:46:14.476Z,4.37
2019-02-14T04:48:43.137Z,4.38
2019-02-14T04:51:11.492Z,4.38
2019-02-14T04:53:39.758Z,4.37
2019-02-14T04:56:08.055Z,4.38
2019-02-14T04:58:36.321Z,4.37
2019-02-14T05:01:04.584Z,4.40
2019-02-14T05:03:32.834Z,4.41
2019-02-14T05:06:01.645Z,4.41
2019-02-14T05:08:30.033Z,4.41
2019-02-14T05:10:58.322Z,4.42
2019-02-14T05:13:26.571Z,4.41
2019-02-14T05:15:54.892Z,4.39
2019-02-14T05:18:23.150Z,4.39
2019-02-14T05:20:51.404Z,4.37
2019-02-14T05:23:19.692Z,4.37
2019-02-14T05:25:47.942Z,4.39
2019-02-14T05:28:16.230Z,4.38
2019-02-14T05:30:44.551Z,4.37
2019-02-14T05:33:12.795Z,4.34
2019-02-14T05:35:41.061Z,4.35
2019-02-14T05:38:09.327Z,4.37
2019-02-14T05:40:37.583Z,4.38
2019-02-14T05:43:05.865Z,4.39
2019-02-14T05:45:34.111Z,4.35
2019-02-14T05:48:02.394Z,4.35
2019-02-14T05:50:30.646Z,4.34
2019-02-14T05:52:58.933Z,4.34
2019-02-14T05:55:27.185Z,4.31
2019-02-14T05:57:55.472Z,4.29
2019-02-14T06:00:23.821Z,4.32
2019-02-14T06:02:52.071Z,4.26
2019-02-14T06:05:20.392Z,4.24
2019-02-14T06:07:48.646Z,4.23
2019-02-14T06:10:16.906Z,4.26
2019-02-14T06:12:45.194Z,4.30
2019-02-14T06:15:13.812Z,4.30
2019-02-14T06:17:42.088Z,4.31
2019-02-14T06:20:13.324Z,4.30
2019-02-14T06:22:41.611Z,4.29
2019-02-14T06:25:11.011Z,4.31
2019-02-14T06:27:39.271Z,4.33
2019-02-14T06:30:10.401Z,4.34
2019-02-14T06:32:38.663Z,4.34
2019-02-14T06:35:08.521Z,4.35
2019-02-14T06:37:36.776Z,4.33
2019-02-14T06:40:08.079Z,4.34
2019-02-14T06:42:36.368Z,4.34
2019-02-14T06:45:07.076Z,4.33
2019-02-14T06:47:35.334Z,4.32
2019-02-14T06:50:03.613Z,4.30
2019-02-14T06:52:31.878Z,4.33
2019-02-14T06:55:00.286Z,4.37
2019-02-14T06:57:28.508Z,4.37
2019-02-14T06:59:56.755Z,4.36
2019-02-14T07:02:25.046Z,4.36
2019-02-14T07:04:53.301Z,4.39
2019-02-14T07:07:21.569Z,4.38
2019-02-14T07:09:49.849Z,4.38
2019-02-14T07:12:18.094Z,4.36
2019-02-14T07:14:46.381Z,4.35
2019-02-14T07:17:14.634Z,4.31
2019-02-14T07:19:42.913Z,4.32
2019-02-14T07:22:11.168Z,4.38
2019-02-14T07:24:39.470Z,4.38
2019-02-14T07:27:07.729Z,4.36
2019-02-14T07:29:35.992Z,4.39
2019-02-14T07:32:04.321Z,4.37
2019-02-14T07:34:32.577Z,4.38
2019-02-14T07:37:00.825Z,4.33
2019-02-14T07:39:29.116Z,4.33
2019-02-14T07:41:57.367Z,4.35
2019-02-14T07:44:25.686Z,4.35
2019-02-14T07:46:53.942Z,4.34
2019-02-14T07:49:22.188Z,4.34
2019-02-14T07:51:50.453Z,4.35
2019-02-14T07:54:18.726Z,4.38
2019-02-14T07:56:47.014Z,4.38
2019-02-14T07:59:15.269Z,4.38
2019-02-14T08:01:43.563Z,4.39
2019-02-14T08:04:11.815Z,4.44
2019-02-14T08:06:40.073Z,4.49
2019-02-14T08:09:08.355Z,4.48
2019-02-14T08:11:36.619Z,4.45
2019-02-14T08:14:04.913Z,4.44
2019-02-14T08:16:33.203Z,4.47
2019-02-14T08:19:01.470Z,4.46
2019-02-14T08:21:29.720Z,4.48
2019-02-14T08:23:58.009Z,4.45
2019-02-14T08:26:26.266Z,4.51
2019-02-14T08:28:54.547Z,4.53
2019-02-14T08:31:22.820Z,4.54
2019-02-14T08:33:51.173Z,4.53
2019-02-14T08:36:19.530Z,4.58
2019-02-14T08:38:47.818Z,4.56
2019-02-14T08:41:16.074Z,4.54
2019-02-14T08:43:44.338Z,4.50
2019-02-14T08:46:13.482Z,4.57
2019-02-14T08:48:41.752Z,4.60
2019-02-14T08:51:10.009Z,4.64
2019-02-14T08:53:38.294Z,4.67
2019-02-14T08:56:06.597Z,4.65
2019-02-14T08:58:34.847Z,4.67
2019-02-14T09:01:03.101Z,4.69
2019-02-14T09:03:31.383Z,4.71
2019-02-14T09:05:59.660Z,4.74
2019-02-14T09:08:27.917Z,4.76
2019-02-14T09:10:56.180Z,4.78
2019-02-14T09:13:24.455Z,4.77
2019-02-14T09:15:52.718Z,4.81
2019-02-14T09:18:21.007Z,4.81
2019-02-14T09:20:49.257Z,4.80
2019-02-14T09:23:17.531Z,4.83
2019-02-14T09:25:45.800Z,4.87
2019-02-14T09:28:14.052Z,4.88
2019-02-14T09:30:42.735Z,4.92
2019-02-14T09:33:11.062Z,4.96
2019-02-14T09:35:39.316Z,4.93
2019-02-14T09:38:07.611Z,4.87
2019-02-14T09:40:35.903Z,4.78
2019-02-14T09:43:04.176Z,4.82
2019-02-14T09:45:32.462Z,4.90
2019-02-14T09:48:00.770Z,4.93
2019-02-14T09:50:29.033Z,4.96
2019-02-14T09:52:57.296Z,4.97
2019-02-14T09:55:25.585Z,5.03
2019-02-14T09:57:53.856Z,5.05
2019-02-14T10:00:22.139Z,5.03
2019-02-14T10:02:50.439Z,5.01
2019-02-14T10:05:18.688Z,4.97
2019-02-14T10:07:46.983Z,5.02
2019-02-14T10:10:19.775Z,5.07
2019-02-14T10:12:48.079Z,5.08
2019-02-14T10:15:16.333Z,5.12
2019-02-14T10:17:44.599Z,5.16
2019-02-14T10:20:16.998Z,5.19
2019-02-14T10:22:45.243Z,5.21
2019-02-14T10:25:13.836Z,5.26
2019-02-14T10:27:42.315Z,5.22
2019-02-14T10:30:13.564Z,5.23
2019-02-14T10:32:41.818Z,5.22
2019-02-14T10:35:10.084Z,5.22
2019-02-14T10:37:38.372Z,5.25
2019-02-14T10:40:12.702Z,5.26
2019-02-14T10:42:40.968Z,5.28
2019-02-14T10:45:20.895Z,5.38
2019-02-14T10:47:49.198Z,5.36
2019-02-14T10:50:17.464Z,5.40
2019-02-14T10:52:45.721Z,5.44
2019-02-14T10:55:15.022Z,5.50
2019-02-14T10:57:43.392Z,5.59
2019-02-14T11:00:22.983Z,5.65
2019-02-14T11:02:51.375Z,5.69
2019-02-14T11:05:19.805Z,5.70
2019-02-14T11:07:48.068Z,5.72
2019-02-14T11:10:16.657Z,5.78
2019-02-14T11:12:44.950Z,5.82
2019-02-14T11:15:18.789Z,5.88
2019-02-14T11:17:48.946Z,5.89
2019-02-14T11:20:18.013Z,5.97
2019-02-14T11:22:48.669Z,6.05
2019-02-14T11:25:25.656Z,6.12
2019-02-14T11:27:53.956Z,6.18
2019-02-14T11:30:22.217Z,6.22
2019-02-14T11:32:50.471Z,6.24
2019-02-14T11:35:18.772Z,6.24
2019-02-14T11:37:47.055Z,6.22
2019-02-14T11:40:15.315Z,6.21
2019-02-14T11:42:43.599Z,6.25
2019-02-14T11:45:17.633Z,6.31
2019-02-14T11:47:45.894Z,6.33
2019-02-14T11:50:14.185Z,6.33
2019-02-14T11:52:42.444Z,6.35
2019-02-14T11:55:11.244Z,6.42
2019-02-14T11:57:39.541Z,6.48
2019-02-14T12:00:14.993Z,6.54
2019-02-14T12:02:43.287Z,6.52
2019-02-14T12:05:11.554Z,6.71
2019-02-14T12:07:39.845Z,6.92
2019-02-14T12:10:13.409Z,7.03
2019-02-14T12:12:41.246Z,6.96
2019-02-14T12:15:10.912Z,6.94
2019-02-14T12:17:39.170Z,7.02
2019-02-14T12:20:12.356Z,7.13
2019-02-14T12:22:46.267Z,7.20
2019-02-14T12:25:15.720Z,7.33
2019-02-14T12:27:44.042Z,7.56
2019-02-14T12:30:14.229Z,7.68
2019-02-14T12:32:42.479Z,7.75
2019-02-14T12:35:10.776Z,7.76
2019-02-14T12:37:39.032Z,7.90
2019-02-14T12:40:10.069Z,8.24
2019-02-14T12:42:38.315Z,8.53
2019-02-14T12:45:20.236Z,8.61
2019-02-14T12:47:42.355Z,8.69
2019-02-14T12:50:10.617Z,8.69
2019-02-14T12:52:38.904Z,8.75
2019-02-14T12:55:07.160Z,8.77
2019-02-14T12:57:35.450Z,9.13
2019-02-14T13:00:05.374Z,9.24
2019-02-14T13:02:33.598Z,9.66
2019-02-14T13:05:01.852Z,9.98
2019-02-14T13:07:30.162Z,10.78
2019-02-14T13:09:58.422Z,11.55
2019-02-14T13:12:26.694Z,12.06
2019-02-14T13:14:55.005Z,12.51
2019-02-14T13:17:23.264Z,13.02
2019-02-14T13:19:51.527Z,13.69
2019-02-14T13:22:19.806Z,13.55
2019-02-14T13:24:48.106Z,13.46
2019-02-14T13:27:16.369Z,13.37
2019-02-14T13:29:44.645Z,12.96
2019-02-14T13:32:13.712Z,12.56
2019-02-14T13:34:42.087Z,13.17
2019-02-14T13:37:10.355Z,13.65
2019-02-14T13:39:38.642Z,13.45
2019-02-14T13:42:06.890Z,13.22
2019-02-14T13:44:35.189Z,12.94
2019-02-14T13:47:03.456Z,13.14
2019-02-14T13:49:32.725Z,12.99
2019-02-14T13:52:01.189Z,12.92
2019-02-14T13:54:29.471Z,12.88
2019-02-14T13:56:57.742Z,13.14
2019-02-14T13:59:26.033Z,13.16
2019-02-14T14:01:54.316Z,13.07
2019-02-14T14:04:22.603Z,13.30
2019-02-14T14:06:50.891Z,13.27
2019-02-14T14:09:19.158Z,13.55
2019-02-14T14:11:47.425Z,13.86
2019-02-14T14:14:15.714Z,13.85
2019-02-14T14:16:43.981Z,14.00
2019-02-14T14:19:12.283Z,14.13
2019-02-14T14:21:40.551Z,14.16
2019-02-14T14:24:08.821Z,13.97
2019-02-14T14:26:37.112Z,13.66
2019-02-14T14:29:05.398Z,13.53
2019-02-14T14:31:33.688Z,13.41
2019-02-14T14:34:01.956Z,13.22
2019-02-14T14:36:30.260Z,13.06
2019-02-14T14:38:58.582Z,13.11
2019-02-14T14:41:26.851Z,13.21
2019-02-14T14:43:59.516Z,13.04
2019-02-14T14:46:29.365Z,12.95
2019-02-14T14:48:57.676Z,12.38
2019-02-14T14:51:25.938Z,11.80
2019-02-14T14:53:54.205Z,11.31
2019-02-14T14:56:22.480Z,10.97
2019-02-14T14:58:50.736Z,10.47
2019-02-14T15:01:19.031Z,10.21
2019-02-14T15:03:47.320Z,9.86
2019-02-14T15:06:15.583Z,9.57
2019-02-14T15:08:43.921Z,9.33
2019-02-14T15:11:12.226Z,9.12
2019-02-14T15:13:40.493Z,8.81
2019-02-14T15:16:08.747Z,8.60
2019-02-14T15:18:37.042Z,8.47
2019-02-14T15:21:05.352Z,8.16
2019-02-14T15:23:33.597Z,7.97
2019-02-14T15:26:01.865Z,7.88
2019-02-14T15:28:30.189Z,7.55
2019-02-14T15:30:58.480Z,7.53
2019-02-14T15:33:26.747Z,7.44
2019-02-14T15:35:55.033Z,7.34
2019-02-14T15:38:23.296Z,7.10
2019-02-14T15:40:51.562Z,7.02
2019-02-14T15:43:19.821Z,6.97
2019-02-14T15:45:48.115Z,6.87
2019-02-14T15:48:16.386Z,6.79
2019-02-14T15:50:44.666Z,6.73
2019-02-14T15:53:12.930Z,6.66
2019-02-14T15:55:43.655Z,6.56
2019-02-14T15:58:11.390Z,6.52
2019-02-14T16:00:39.677Z,6.43
2019-02-14T16:03:07.953Z,6.37
2019-02-14T16:05:38.062Z,6.32
2019-02-14T16:08:06.230Z,6.24
2019-02-14T16:10:34.532Z,6.17
2019-02-14T16:13:02.788Z,6.08
2019-02-14T16:15:33.632Z,6.02
2019-02-14T16:18:01.635Z,5.96
2019-02-14T16:20:29.999Z,5.86
2019-02-14T16:22:58.278Z,5.84
2019-02-14T16:25:28.225Z,5.80
2019-02-14T16:27:56.604Z,5.75
2019-02-14T16:30:24.866Z,5.73
2019-02-14T16:32:53.175Z,5.65
2019-02-14T16:35:21.502Z,5.63
2019-02-14T16:37:50.533Z,5.58
2019-02-14T16:40:27.562Z,5.55
2019-02-14T16:42:49.016Z,5.53
2019-02-14T16:45:17.306Z,5.55
2019-02-14T16:47:45.569Z,5.53
2019-02-14T16:50:13.844Z,5.53
2019-02-14T16:52:42.138Z,5.48
2019-02-14T16:55:10.425Z,5.51
2019-02-14T16:57:38.691Z,5.54
2019-02-14T17:00:10.385Z,5.53
2019-02-14T17:02:38.691Z,5.50
2019-02-14T17:05:06.963Z,5.41
2019-02-14T17:07:35.221Z,5.39
2019-02-14T17:10:03.848Z,5.38
2019-02-14T17:12:32.110Z,5.38
2019-02-14T17:15:00.440Z,5.40
2019-02-14T17:17:28.716Z,5.30
2019-02-14T17:19:57.004Z,5.30
2019-02-14T17:22:25.294Z,5.28
2019-02-14T17:24:53.549Z,5.28
2019-02-14T17:27:21.801Z,5.27
2019-02-14T17:29:50.111Z,5.27
2019-02-14T17:32:18.376Z,5.28
2019-02-14T17:34:46.661Z,5.27
2019-02-14T17:37:14.930Z,5.27
2019-02-14T17:39:43.224Z,5.27
2019-02-14T17:42:11.484Z,5.28
2019-02-14T17:44:39.777Z,5.23
2019-02-14T17:47:08.125Z,5.19
2019-02-14T17:49:36.414Z,5.19
2019-02-14T17:52:04.671Z,5.19
2019-02-14T17:54:32.965Z,5.23
2019-02-14T17:57:01.224Z,5.22
2019-02-14T17:59:29.498Z,5.21
2019-02-14T18:01:57.760Z,5.20
2019-02-14T18:04:26.037Z,5.18
2019-02-14T18:06:54.318Z,5.13
2019-02-14T18:09:22.607Z,5.14
2019-02-14T18:11:50.866Z,5.11
2019-02-14T18:14:19.183Z,5.15
2019-02-14T18:16:47.443Z,5.18
2019-02-14T18:19:15.706Z,5.11
2019-02-14T18:21:44.042Z,5.11
2019-02-14T18:24:12.298Z,5.07
2019-02-14T18:26:52.536Z,5.06
2019-02-14T18:29:28.381Z,5.07
2019-02-14T18:31:56.652Z,5.09
2019-02-14T18:34:24.909Z,5.06
2019-02-14T18:36:53.203Z,5.05
2019-02-14T18:39:21.478Z,4.99
2019-02-14T18:41:49.799Z,5.03
2019-02-14T18:44:18.525Z,5.05
2019-02-14T18:46:46.782Z,5.06
2019-02-14T18:49:15.081Z,5.03
2019-02-14T18:51:43.347Z,5.03
2019-02-14T18:54:11.611Z,5.05
2019-02-14T18:56:39.890Z,5.05
2019-02-14T18:59:08.172Z,5.02
2019-02-14T19:01:36.434Z,5.05
2019-02-14T19:04:04.753Z,5.02
2019-02-14T19:06:33.015Z,5.07
2019-02-14T19:09:01.451Z,5.05
2019-02-14T19:11:29.875Z,5.07
2019-02-14T19:13:58.420Z,5.09
2019-02-14T19:16:26.679Z,5.09
2019-02-14T19:18:54.938Z,5.07
2019-02-14T19:21:23.213Z,5.05
2019-02-14T19:23:51.491Z,5.05
2019-02-14T19:26:19.788Z,5.03
2019-02-14T19:28:48.047Z,5.02
2019-02-14T19:31:16.364Z,5.03
2019-02-14T19:33:44.593Z,5.01
2019-02-14T19:36:12.881Z,4.99
2019-02-14T19:38:41.146Z,5.00
2019-02-14T19:41:09.433Z,5.06
2019-02-14T19:43:37.740Z,5.04
2019-02-14T19:46:06.003Z,5.05
2019-02-14T19:48:34.269Z,5.06
2019-02-14T19:51:02.842Z,5.05
2019-02-14T19:53:31.100Z,5.06
2019-02-14T19:55:59.373Z,5.05
2019-02-14T19:58:27.669Z,5.08
2019-02-14T20:00:55.931Z,5.09
2019-02-14T20:03:24.237Z,5.11
2019-02-14T20:05:52.504Z,5.07
2019-02-14T20:08:20.771Z,5.10
2019-02-14T20:10:49.469Z,5.10
2019-02-14T20:13:17.708Z,5.09
2019-02-14T20:15:45.972Z,5.04
2019-02-14T20:18:14.297Z,5.00
2019-02-14T20:20:42.548Z,5.02
2019-02-14T20:23:10.809Z,5.03
2019-02-14T20:25:39.113Z,5.07
2019-02-14T20:28:07.446Z,5.09
2019-02-14T20:30:35.705Z,5.10
2019-02-14T20:33:05.000Z,5.06
2019-02-14T20:35:33.458Z,5.01
2019-02-14T20:38:01.762Z,5.03
2019-02-14T20:40:31.969Z,5.05
2019-02-14T20:43:00.011Z,5.06
2019-02-14T20:45:28.277Z,5.07
2019-02-14T20:47:57.363Z,5.07
2019-02-14T20:50:25.710Z,5.09
2019-02-14T20:52:53.980Z,5.10
2019-02-14T20:55:25.150Z,5.10
2019-02-14T20:57:53.587Z,5.09
2019-02-14T21:00:35.495Z,5.09
2019-02-14T21:03:03.754Z,5.09
2019-02-14T21:05:32.042Z,5.10
2019-02-14T21:08:00.312Z,5.11
2019-02-14T21:10:28.653Z,5.09
2019-02-14T21:12:56.931Z,5.08
2019-02-14T21:15:25.197Z,5.05
2019-02-14T21:17:53.477Z,5.06
2019-02-14T21:20:21.762Z,5.06
2019-02-14T21:22:50.021Z,5.07
2019-02-14T21:25:22.455Z,5.05
2019-02-14T21:27:48.370Z,4.99
2019-02-14T21:30:18.111Z,5.01
2019-02-14T21:32:46.483Z,5.01
2019-02-14T21:35:15.109Z,5.01
2019-02-14T21:37:43.425Z,5.02
2019-02-14T21:40:15.745Z,5.05
2019-02-14T21:42:44.043Z,5.06
2019-02-14T21:45:14.469Z,5.07
2019-02-14T21:47:42.741Z,5.11
2019-02-14T21:50:12.050Z,5.12
2019-02-14T21:52:40.441Z,5.13
2019-02-14T21:55:10.637Z,5.13
2019-02-14T21:57:38.935Z,5.12
2019-02-14T22:00:14.111Z,5.09
2019-02-14T22:02:42.908Z,5.08
2019-02-14T22:05:11.540Z,5.08
2019-02-14T22:07:39.817Z,5.10
2019-02-14T22:10:10.512Z,5.10
2019-02-14T22:12:41.836Z,5.09
2019-02-14T22:15:14.475Z,5.08
2019-02-14T22:17:42.756Z,5.07
2019-02-14T22:20:11.049Z,5.05
2019-02-14T22:22:39.340Z,5.08
2019-02-14T22:25:10.038Z,5.07
2019-02-14T22:27:38.519Z,5.03
2019-02-14T22:30:11.055Z,5.01
2019-02-14T22:32:39.344Z,4.99
2019-02-14T22:35:07.643Z,5.00
2019-02-14T22:37:35.904Z,5.01
2019-02-14T22:40:06.046Z,4.99
2019-02-14T22:42:34.304Z,4.98
2019-02-14T22:45:02.565Z,4.97
2019-02-14T22:47:30.858Z,4.96
2019-02-14T22:49:59.161Z,4.98
2019-02-14T22:52:27.470Z,4.97
2019-02-14T22:54:55.743Z,4.93
2019-02-14T22:57:24.073Z,4.91
2019-02-14T22:59:52.361Z,4.87
2019-02-14T23:02:20.707Z,4.85
2019-02-14T23:04:49.004Z,4.85
2019-02-14T23:07:17.265Z,4.89
2019-02-14T23:09:45.618Z,4.88
2019-02-14T23:12:17.254Z,4.89
2019-02-14T23:14:45.565Z,4.91
2019-02-14T23:17:13.873Z,4.93
2019-02-14T23:19:42.136Z,4.94
2019-02-14T23:22:10.389Z,4.95
2019-02-14T23:24:38.722Z,4.95
2019-02-14T23:27:07.053Z,4.97
2019-02-14T23:29:35.313Z,5.00
2019-02-14T23:32:03.752Z,5.03
2019-02-14T23:34:32.007Z,5.03
2019-02-14T23:37:00.277Z,5.02
2019-02-14T23:39:28.568Z,5.02
2019-02-14T23:41:56.826Z,5.03
2019-02-14T23:44:25.124Z,4.99
2019-02-14T23:46:53.374Z,4.99
2019-02-14T23:49:21.701Z,4.99
2019-02-14T23:51:49.968Z,5.01
2019-02-14T23:54:18.301Z,5.02
2019-02-14T23:56:46.598Z,5.02
2019-02-14T23:59:14.855Z,4.97
